Terminal Aerodrome Forecast
Issued by NWS Wilmington, OH

Current Version | Previous Version | Graphics & Text | Print | Product List | Glossary On
Versions: 1 2 3 4 5 6 7 8 9 10 11 12 13 14 15 16 17 18 19 20 21 22 23 24 25 26 27 28 29 30 31 32 33
000
FTUS41 KILN 210243 AAC
TAFCVG
TAF AMD
KCVG 210243Z 2103/2206 24012KT P6SM -SHRA BKN050 OVC100
      TEMPO 2103/2105 VRB10G20KT 3SM TSRA OVC035CB
     FM210500 28008KT P6SM BKN025
     FM210700 32008KT P6SM BKN080
     FM211200 33008KT P6SM SCT140
     FM212300 36008KT P6SM OVC050=

USA.gov is the U.S. government's official web portal to all federal, state and local government web resources and services.